Time;durP1;ratioP1;P1;durP2;ratioP2;P2;SDS_P1;SDS_P2;PMS_P1;PMS_P2;Temp;Humidity;BMP_temperature;BMP_pressure;BME280_temperature;BME280_humidity;BME280_pressure;Samples;Min_cycle;Max_cycle;Signal;HPM_P1;HPM_P2
2023/12/01 00:01:33;;;;;;;9.85;6.70;;;14.10;80.40;;;;;;4977558;28;20031;-80
2023/12/01 00:03:58;;;;;;;9.93;6.63;;;14.10;80.40;;;;;;4977525;28;20480;-80
2023/12/01 00:06:23;;;;;;;10.00;6.63;;;14.20;80.40;;;;;;4977417;28;20034;-81
2023/12/01 00:08:49;;;;;;;9.98;6.47;;;14.10;80.40;;;;;;4977184;28;20371;-80
2023/12/01 00:11:15;;;;;;;9.57;6.53;;;14.10;80.40;;;;;;4994752;28;20027;-80
2023/12/01 00:13:40;;;;;;;9.20;6.03;;;14.10;80.50;;;;;;4977523;28;20026;-81
2023/12/01 00:16:06;;;;;;;9.07;6.53;;;14.00;80.30;;;;;;4977475;28;20041;-80
2023/12/01 00:18:31;;;;;;;10.02;6.50;;;14.20;80.50;;;;;;4977117;28;20037;-80
2023/12/01 00:20:57;;;;;;;9.55;6.28;;;14.10;80.50;;;;;;4977325;28;20109;-80
2023/12/01 00:23:22;;;;;;;9.25;6.18;;;14.30;80.40;;;;;;4977377;28;20026;-80
2023/12/01 00:25:48;;;;;;;9.65;6.28;;;14.10;80.90;;;;;;4994697;28;20499;-80
2023/12/01 00:28:14;;;;;;;9.82;6.82;;;14.10;80.40;;;;;;4976953;28;20061;-80
2023/12/01 00:30:39;;;;;;;9.23;6.22;;;14.10;80.30;;;;;;4977007;28;20633;-80
2023/12/01 00:33:05;;;;;;;9.68;6.07;;;14.10;80.40;;;;;;4977008;28;20110;-80
2023/12/01 00:35:30;;;;;;;9.05;6.10;;;14.10;80.40;;;;;;4977167;28;20023;-81
2023/12/01 00:37:56;;;;;;;9.45;6.72;;;14.10;80.40;;;;;;4977070;28;20764;-80
2023/12/01 00:40:22;;;;;;;9.48;6.40;;;14.10;80.40;;;;;;4976654;28;20089;-80
2023/12/01 00:42:47;;;;;;;9.02;6.22;;;14.10;80.50;;;;;;4976885;28;20559;-81
2023/12/01 00:45:13;;;;;;;9.32;6.47;;;14.00;80.40;;;;;;4976868;28;20045;-80
2023/12/01 00:47:38;;;;;;;10.48;6.95;;;14.10;80.40;;;;;;4976793;28;20483;-80
2023/12/01 00:50:04;;;;;;;9.02;6.40;;;14.10;80.40;;;;;;4976250;28;20027;-81
2023/12/01 00:52:30;;;;;;;10.25;6.55;;;14.10;80.40;;;;;;4976659;28;20149;-81
2023/12/01 00:54:56;;;;;;;9.00;6.05;;;14.10;80.40;;;;;;4994059;28;20092;-80
2023/12/01 00:57:22;;;;;;;9.25;6.25;;;14.10;80.30;;;;;;4976454;28;20418;-81
2023/12/01 00:59:48;;;;;;;7.93;5.55;;;14.10;80.40;;;;;;4976258;28;20173;-80
2023/12/01 01:02:13;;;;;;;9.60;6.65;;;14.10;80.50;;;;;;4976438;28;20106;-81
2023/12/01 01:04:39;;;;;;;9.93;6.65;;;14.10;80.30;;;;;;4976388;28;20030;-81
2023/12/01 01:07:05;;;;;;;8.95;6.45;;;14.10;80.40;;;;;;4993835;28;20026;-81
2023/12/01 01:09:30;;;;;;;9.88;6.68;;;14.10;80.40;;;;;;4993387;28;20426;-81
2023/12/01 01:11:55;;;;;;;9.38;6.38;;;14.10;80.90;;;;;;4976460;28;20026;-81
2023/12/01 01:14:21;;;;;;;10.10;6.60;;;14.10;80.30;;;;;;4975804;28;20022;-80
2023/12/01 01:16:47;;;;;;;9.35;6.55;;;14.10;80.40;;;;;;4994039;28;20025;-81
2023/12/01 01:19:12;;;;;;;8.98;6.05;;;14.10;80.30;;;;;;4993399;28;20058;-81
2023/12/01 01:21:37;;;;;;;9.93;6.80;;;14.10;80.40;;;;;;4976373;28;20064;-80
2023/12/01 01:24:03;;;;;;;10.23;6.45;;;14.10;80.40;;;;;;4976188;28;20032;-80
2023/12/01 01:26:29;;;;;;;10.70;7.18;;;14.10;80.50;;;;;;4976187;28;20031;-81
2023/12/01 01:28:55;;;;;;;10.13;6.75;;;14.10;80.30;;;;;;4974827;28;20502;-81
2023/12/01 01:31:20;;;;;;;9.32;6.53;;;14.10;80.40;;;;;;4975883;28;20023;-81
2023/12/01 01:33:46;;;;;;;9.43;6.60;;;14.00;80.30;;;;;;4976026;28;20026;-81
2023/12/01 01:36:11;;;;;;;9.40;6.68;;;14.10;80.50;;;;;;4975937;28;20026;-81
2023/12/01 01:38:37;;;;;;;10.20;6.95;;;14.00;80.40;;;;;;4975789;28;20068;-81
2023/12/01 01:41:03;;;;;;;10.35;6.30;;;14.10;80.40;;;;;;4975655;28;20035;-81
2023/12/01 01:43:29;;;;;;;9.15;6.47;;;14.10;80.50;;;;;;4993194;28;20402;-81
2023/12/01 01:46:11;;;;;;;10.43;6.88;;;14.00;80.30;;;;;;4975997;28;20027;-81
2023/12/01 01:48:38;;;;;;;10.40;6.72;;;14.10;80.40;;;;;;4975561;28;20061;-81
2023/12/01 01:51:09;;;;;;;9.70;6.63;;;14.10;80.70;;;;;;4975751;28;20046;-81
2023/12/01 01:53:41;;;;;;;10.35;6.70;;;14.10;81.00;;;;;;4975714;28;20022;-81
2023/12/01 01:56:07;;;;;;;9.48;6.55;;;14.00;80.40;;;;;;4975711;28;20403;-81
2023/12/01 01:58:33;;;;;;;9.13;6.55;;;14.10;80.50;;;;;;4975764;28;20121;-80
2023/12/01 02:00:59;;;;;;;9.73;6.63;;;14.10;80.50;;;;;;4975582;28;20506;-81
2023/12/01 02:03:24;;;;;;;10.13;6.78;;;13.90;80.90;;;;;;4975704;28;20035;-81
2023/12/01 02:05:50;;;;;;;9.60;6.80;;;14.00;80.40;;;;;;4975644;28;20057;-81
2023/12/01 02:08:34;;;;;;;10.20;7.18;;;14.00;80.40;;;;;;4975345;28;20117;-80
2023/12/01 02:11:00;;;;;;;10.27;6.90;;;14.00;80.40;;;;;;4975543;28;20022;-80
2023/12/01 02:13:26;;;;;;;10.15;6.50;;;14.00;80.50;;;;;;4975488;28;20023;-81
2023/12/01 02:15:53;;;;;;;10.70;6.65;;;14.00;80.40;;;;;;4975420;28;20022;-80
2023/12/01 02:18:31;;;;;;;9.43;6.57;;;14.00;80.40;;;;;;4975450;28;20026;-80
2023/12/01 02:20:58;;;;;;;11.98;6.55;;;14.00;80.30;;;;;;4975570;28;20038;-79
2023/12/01 02:23:24;;;;;;;9.57;6.63;;;14.00;80.40;;;;;;4975308;28;20022;-80
2023/12/01 02:25:50;;;;;;;9.98;7.00;;;14.00;80.40;;;;;;4977097;28;20022;-81
2023/12/01 02:28:16;;;;;;;10.13;7.10;;;14.00;80.30;;;;;;4979011;28;20034;-80
2023/12/01 02:30:43;;;;;;;10.20;6.93;;;14.10;80.50;;;;;;4979291;28;20026;-80
2023/12/01 02:33:16;;;;;;;9.30;6.50;;;14.00;80.40;;;;;;4979409;28;20019;-80
2023/12/01 02:35:46;;;;;;;9.45;6.75;;;14.00;80.40;;;;;;4979078;28;20073;-81
2023/12/01 02:38:12;;;;;;;10.18;7.00;;;14.00;80.40;;;;;;4979117;28;20018;-81
2023/12/01 02:40:42;;;;;;;10.55;6.63;;;14.00;80.50;;;;;;4978859;28;20046;-81
2023/12/01 02:43:11;;;;;;;9.88;6.80;;;14.00;80.50;;;;;;4979092;28;20089;-80
2023/12/01 02:45:37;;;;;;;10.10;7.07;;;14.00;80.40;;;;;;4978914;28;20509;-80
2023/12/01 02:48:03;;;;;;;9.27;6.63;;;14.00;80.50;;;;;;4978861;28;20030;-81
2023/12/01 02:50:30;;;;;;;11.10;7.28;;;14.00;80.50;;;;;;4978408;28;20458;-82
2023/12/01 02:52:56;;;;;;;9.35;6.53;;;14.00;80.40;;;;;;4978894;28;20022;-81
2023/12/01 02:55:22;;;;;;;10.38;7.03;;;14.00;80.40;;;;;;4978801;28;20356;-81
2023/12/01 02:57:47;;;;;;;9.40;6.45;;;13.90;80.40;;;;;;4978814;28;20015;-81
2023/12/01 03:00:13;;;;;;;9.93;7.03;;;14.00;80.40;;;;;;4978553;28;20152;-81
2023/12/01 03:02:40;;;;;;;10.15;6.70;;;13.90;80.30;;;;;;4978725;28;20624;-81
2023/12/01 03:05:07;;;;;;;9.57;6.70;;;14.00;80.50;;;;;;4978808;28;20414;-81
2023/12/01 03:07:32;;;;;;;9.45;6.80;;;14.00;80.40;;;;;;4978465;28;20402;-80
2023/12/01 03:09:58;;;;;;;8.98;6.28;;;14.00;80.40;;;;;;4978408;28;20027;-81
2023/12/01 03:12:23;;;;;;;10.23;7.07;;;13.90;80.50;;;;;;4978622;28;20018;-80
2023/12/01 03:14:49;;;;;;;10.25;7.30;;;14.00;80.50;;;;;;4978473;28;20029;-81
2023/12/01 03:17:14;;;;;;;9.57;6.90;;;14.00;80.40;;;;;;4978460;28;20695;-81
2023/12/01 03:19:40;;;;;;;10.38;6.82;;;14.00;80.40;;;;;;4978112;28;20023;-81
2023/12/01 03:22:05;;;;;;;10.45;7.00;;;14.00;80.50;;;;;;4976202;28;20042;-81
2023/12/01 03:24:31;;;;;;;10.10;7.28;;;13.90;80.40;;;;;;4978072;28;20027;-81
2023/12/01 03:26:56;;;;;;;9.07;6.53;;;13.90;80.40;;;;;;4978373;28;20105;-81
2023/12/01 03:29:22;;;;;;;9.73;6.70;;;14.00;80.60;;;;;;4977915;28;20034;-80
2023/12/01 03:31:47;;;;;;;9.77;6.82;;;13.90;80.40;;;;;;4978381;28;20102;-81
2023/12/01 03:34:13;;;;;;;9.70;6.72;;;13.90;80.50;;;;;;4978155;28;20546;-80
2023/12/01 03:36:38;;;;;;;10.32;6.63;;;13.90;80.40;;;;;;4977970;28;20057;-81
2023/12/01 03:39:04;;;;;;;10.43;7.35;;;13.90;80.30;;;;;;4977338;28;20034;-79
2023/12/01 03:41:29;;;;;;;10.48;6.95;;;13.90;80.40;;;;;;4977597;28;20162;-81
2023/12/01 03:43:55;;;;;;;9.05;6.07;;;13.90;80.40;;;;;;4977549;28;20077;-80
2023/12/01 03:46:21;;;;;;;10.10;7.00;;;13.90;80.50;;;;;;4977429;28;20033;-81
2023/12/01 03:48:46;;;;;;;9.40;6.72;;;13.90;80.40;;;;;;4994997;28;20395;-81
2023/12/01 03:51:11;;;;;;;10.35;7.13;;;13.90;80.40;;;;;;4995267;28;20161;-81
2023/12/01 03:53:37;;;;;;;10.15;7.18;;;13.90;80.50;;;;;;4977769;28;20029;-82
2023/12/01 03:56:04;;;;;;;10.07;7.00;;;13.90;80.50;;;;;;4977816;28;20396;-81
2023/12/01 03:58:29;;;;;;;9.32;6.47;;;13.90;80.50;;;;;;4994810;28;20023;-81
2023/12/01 04:00:55;;;;;;;10.73;7.07;;;13.90;80.50;;;;;;4995351;28;20032;-81
2023/12/01 04:03:21;;;;;;;10.90;6.95;;;13.90;80.40;;;;;;4977657;28;20113;-80
2023/12/01 04:05:47;;;;;;;10.52;7.03;;;13.90;80.50;;;;;;4994862;28;20029;-80
2023/12/01 04:08:13;;;;;;;9.38;6.40;;;13.90;80.50;;;;;;4977459;28;20022;-81
2023/12/01 04:10:38;;;;;;;9.73;6.55;;;13.90;80.50;;;;;;4977285;28;20028;-81
2023/12/01 04:13:07;;;;;;;9.20;6.22;;;13.90;80.40;;;;;;4977451;28;20022;-80
2023/12/01 04:15:34;;;;;;;9.40;6.47;;;13.90;80.50;;;;;;4977426;28;20037;-80
2023/12/01 04:18:09;;;;;;;10.65;6.82;;;13.90;80.50;;;;;;4994778;28;20018;-80
2023/12/01 04:20:38;;;;;;;9.93;7.43;;;13.80;80.50;;;;;;4994517;28;20049;-80
2023/12/01 04:23:12;;;;;;;10.15;7.00;;;13.80;80.40;;;;;;4977151;28;20022;-80
2023/12/01 04:25:39;;;;;;;10.40;7.15;;;13.80;80.60;;;;;;4977223;28;20117;-80
2023/12/01 04:28:06;;;;;;;9.55;6.80;;;13.80;80.50;;;;;;4977057;28;20100;-81
2023/12/01 04:30:32;;;;;;;10.13;6.50;;;13.90;80.60;;;;;;4976810;28;20050;-80
2023/12/01 04:32:59;;;;;;;9.63;6.75;;;13.90;80.50;;;;;;4977011;28;20057;-81
2023/12/01 04:35:28;;;;;;;10.05;6.78;;;13.90;80.60;;;;;;4994420;28;20022;-79
2023/12/01 04:37:55;;;;;;;9.93;6.95;;;13.90;80.50;;;;;;4976734;28;20475;-80
2023/12/01 04:40:20;;;;;;;10.32;6.68;;;13.80;80.60;;;;;;4976571;28;20030;-81
2023/12/01 04:42:47;;;;;;;9.65;6.55;;;13.90;80.60;;;;;;4977124;28;20029;-80
2023/12/01 04:45:15;;;;;;;9.85;6.68;;;13.80;80.50;;;;;;4976765;28;20042;-81
2023/12/01 04:47:42;;;;;;;9.43;6.32;;;13.80;80.50;;;;;;4976800;28;20498;-80
2023/12/01 04:50:13;;;;;;;10.30;7.03;;;13.80;80.60;;;;;;4975557;28;20034;-81
2023/12/01 04:52:49;;;;;;;9.50;6.45;;;13.80;80.60;;;;;;4994241;28;20503;-82
2023/12/01 04:55:20;;;;;;;10.38;7.18;;;13.80;80.60;;;;;;4976728;28;20495;-80
2023/12/01 04:57:47;;;;;;;9.82;6.95;;;13.80;80.60;;;;;;4973332;28;20041;-81
2023/12/01 05:00:20;;;;;;;9.65;6.18;;;13.80;80.40;;;;;;4977624;28;20429;-81
2023/12/01 05:02:53;;;;;;;9.40;6.43;;;13.80;80.60;;;;;;4978747;28;20026;-80
2023/12/01 05:05:24;;;;;;;8.93;6.10;;;13.80;80.60;;;;;;4974727;28;20569;-81
2023/12/01 05:07:51;;;;;;;9.02;6.18;;;13.80;80.60;;;;;;4974753;28;20032;-81
2023/12/01 05:10:21;;;;;;;9.35;6.30;;;13.80;80.60;;;;;;4974543;28;20465;-80
2023/12/01 05:12:52;;;;;;;10.23;7.13;;;13.80;80.70;;;;;;4974672;28;20030;-81
2023/12/01 05:15:19;;;;;;;9.68;6.47;;;13.80;80.70;;;;;;4974752;28;20108;-80
2023/12/01 05:17:47;;;;;;;10.25;7.05;;;13.80;80.60;;;;;;4974455;28;20118;-81
2023/12/01 05:20:16;;;;;;;10.60;6.78;;;13.80;80.50;;;;;;4973507;28;20030;-81
2023/12/01 05:22:50;;;;;;;9.82;6.35;;;13.80;80.60;;;;;;4969081;28;20041;-81
2023/12/01 05:25:17;;;;;;;8.73;6.07;;;13.80;80.60;;;;;;4974220;28;20482;-81
2023/12/01 05:27:45;;;;;;;10.05;6.63;;;13.80;80.70;;;;;;4991753;28;20034;-81
2023/12/01 05:30:15;;;;;;;10.15;6.68;;;13.80;80.70;;;;;;4972520;28;20034;-81
2023/12/01 05:32:42;;;;;;;10.00;6.43;;;13.80;80.60;;;;;;4972751;28;20510;-81
2023/12/01 05:35:11;;;;;;;9.57;6.50;;;13.80;80.60;;;;;;4974190;28;20056;-80
2023/12/01 05:37:38;;;;;;;9.35;6.15;;;13.80;80.70;;;;;;4974143;28;20076;-81
2023/12/01 05:40:06;;;;;;;9.98;6.90;;;13.70;80.60;;;;;;4973934;28;20101;-81
2023/12/01 05:42:32;;;;;;;10.15;6.78;;;13.70;80.60;;;;;;4973997;28;20028;-81
2023/12/01 05:44:58;;;;;;;9.75;6.43;;;13.80;80.70;;;;;;4974197;28;20031;-81
2023/12/01 05:47:24;;;;;;;9.43;6.60;;;13.70;80.60;;;;;;4974339;28;20033;-81
2023/12/01 05:49:50;;;;;;;10.23;6.88;;;13.70;80.60;;;;;;4991266;28;20118;-81
2023/12/01 05:52:15;;;;;;;9.48;6.47;;;13.80;80.70;;;;;;4974065;28;20053;-80
2023/12/01 05:54:41;;;;;;;9.82;6.60;;;13.70;81.10;;;;;;4974040;28;20502;-80
2023/12/01 05:57:07;;;;;;;9.93;6.88;;;13.70;80.60;;;;;;4973930;28;20128;-80
2023/12/01 05:59:33;;;;;;;10.02;6.43;;;13.70;80.50;;;;;;4973656;28;20191;-80
2023/12/01 06:01:59;;;;;;;9.93;6.43;;;13.70;80.60;;;;;;4973695;28;20586;-81
2023/12/01 06:04:25;;;;;;;9.38;6.32;;;13.70;80.70;;;;;;4973830;28;20272;-81
2023/12/01 06:06:51;;;;;;;9.43;6.45;;;13.70;80.70;;;;;;4973974;28;20037;-81
2023/12/01 06:09:17;;;;;;;9.15;6.20;;;13.70;80.60;;;;;;4973502;28;20026;-80
2023/12/01 06:11:45;;;;;;;10.90;6.95;;;13.70;80.60;;;;;;4973845;28;20510;-81
2023/12/01 06:14:11;;;;;;;9.48;6.57;;;13.70;80.70;;;;;;4973877;28;20030;-81
2023/12/01 06:16:37;;;;;;;9.57;6.40;;;13.70;80.60;;;;;;4991114;28;20023;-80
2023/12/01 06:19:02;;;;;;;9.57;6.65;;;13.70;80.70;;;;;;4973717;28;20399;-80
2023/12/01 06:21:28;;;;;;;9.32;6.47;;;13.70;80.60;;;;;;4971790;28;20035;-80
2023/12/01 06:23:53;;;;;;;9.70;6.22;;;13.70;80.50;;;;;;4968026;28;20081;-80
2023/12/01 06:26:19;;;;;;;9.75;6.40;;;13.70;80.60;;;;;;4967882;28;20034;-80
2023/12/01 06:28:44;;;;;;;9.15;6.40;;;13.70;80.50;;;;;;4967741;28;20458;-79
2023/12/01 06:31:10;;;;;;;9.98;6.82;;;13.70;80.60;;;;;;4967622;28;20030;-80
2023/12/01 06:33:35;;;;;;;9.00;6.25;;;13.70;80.60;;;;;;4967508;28;20033;-79
2023/12/01 06:36:01;;;;;;;8.85;6.15;;;13.70;80.70;;;;;;4968063;28;20450;-79
2023/12/01 06:38:27;;;;;;;9.93;6.80;;;13.70;80.70;;;;;;4968121;28;20034;-80
2023/12/01 07:16:22;;;;;;;10.55;6.93;;;13.60;80.60;;;;;;4989523;28;20092;-81
2023/12/01 07:22:52;;;;;;;9.52;6.40;;;13.60;80.70;;;;;;4969197;28;20046;-80
2023/12/01 07:34:08;;;;;;;8.52;5.80;;;13.60;80.70;;;;;;5632039;22;20069;-80
2023/12/01 07:36:34;;;;;;;8.95;5.95;;;13.60;80.70;;;;;;4972260;28;20018;-82
2023/12/01 07:39:00;;;;;;;8.95;5.65;;;13.60;80.60;;;;;;4970750;28;20039;-81
2023/12/01 08:10:20;;;;;;;8.48;5.45;;;13.60;80.60;;;;;;5058781;22;20054;-81
2023/12/01 08:12:49;;;;;;;9.43;6.25;;;13.60;80.50;;;;;;4969646;28;20503;-81
2023/12/01 08:15:15;;;;;;;8.85;6.07;;;13.60;80.60;;;;;;4980085;28;20408;-81
2023/12/01 08:17:42;;;;;;;9.88;6.13;;;13.60;80.60;;;;;;4989948;28;20022;-79
2023/12/01 08:30:32;;;;;;;8.90;5.90;;;13.60;80.30;;;;;;4966014;28;20050;-80
2023/12/01 08:32:58;;;;;;;9.55;5.63;;;13.60;80.20;;;;;;4950646;28;20035;-80
2023/12/01 08:35:24;;;;;;;9.55;6.00;;;13.60;80.40;;;;;;4950341;28;20019;-81
2023/12/01 08:37:51;;;;;;;8.48;5.72;;;13.60;80.30;;;;;;4950711;28;20381;-81
2023/12/01 08:40:16;;;;;;;9.25;5.97;;;13.60;80.40;;;;;;4949867;28;20041;-80
2023/12/01 08:42:42;;;;;;;8.82;5.53;;;13.50;80.30;;;;;;4950445;28;20031;-80
2023/12/01 08:45:09;;;;;;;9.13;5.78;;;13.60;80.40;;;;;;4950139;28;20022;-80
2023/12/01 08:47:34;;;;;;;9.02;6.18;;;13.50;80.30;;;;;;4950149;28;20153;-80
2023/12/01 08:50:00;;;;;;;8.60;5.63;;;13.60;80.40;;;;;;4945218;28;20034;-80
2023/12/01 08:52:26;;;;;;;9.60;6.55;;;13.50;80.30;;;;;;4964526;28;20518;-83
2023/12/01 08:54:51;;;;;;;9.00;6.20;;;13.60;80.40;;;;;;4946299;28;20494;-80
2023/12/01 08:57:17;;;;;;;9.27;6.05;;;13.50;80.40;;;;;;4950433;28;20125;-79
2023/12/01 08:59:43;;;;;;;9.48;5.97;;;13.50;80.40;;;;;;4954186;28;20117;-78
2023/12/01 09:02:09;;;;;;;8.23;5.53;;;13.50;80.40;;;;;;4987774;28;20394;-79
2023/12/01 09:04:35;;;;;;;9.00;6.10;;;13.50;80.40;;;;;;4973290;28;20027;-79
2023/12/01 09:07:00;;;;;;;9.00;6.13;;;13.50;80.40;;;;;;4959337;28;20563;-79
2023/12/01 09:13:16;;;;;;;8.77;6.05;;;13.50;80.30;;;;;;5181716;22;20415;-81
2023/12/01 09:20:12;;;;;;;9.15;6.18;;;13.50;80.40;;;;;;4970228;28;20046;-79
2023/12/01 09:43:43;;;;;;;8.82;5.88;;;13.70;80.10;;;;;;4891905;29;20728;-80
2023/12/01 09:49:52;;;;;;;8.88;5.80;;;13.50;80.00;;;;;;4984545;22;20061;-81
2023/12/01 09:52:17;;;;;;;9.07;5.82;;;13.60;80.00;;;;;;4948221;28;20037;-81
2023/12/01 09:54:43;;;;;;;8.70;6.05;;;13.60;80.00;;;;;;4950748;28;20026;-81
2023/12/01 09:57:09;;;;;;;8.77;6.25;;;13.60;80.00;;;;;;4954401;28;20018;-82
2023/12/01 09:59:36;;;;;;;8.68;6.07;;;13.60;80.00;;;;;;4968330;28;20073;-80
2023/12/01 10:02:03;;;;;;;8.40;5.78;;;13.60;80.00;;;;;;4986235;28;20114;-81
2023/12/01 10:04:29;;;;;;;8.68;5.85;;;13.60;80.00;;;;;;4968703;28;20712;-80
2023/12/01 10:06:57;;;;;;;10.32;6.28;;;13.60;80.00;;;;;;4968538;28;20031;-80
2023/12/01 10:09:26;;;;;;;8.48;5.57;;;13.60;80.00;;;;;;4967345;28;20037;-80
2023/12/01 10:12:07;;;;;;;9.15;6.30;;;13.60;80.10;;;;;;4950424;29;20138;-81
2023/12/01 10:14:33;;;;;;;;;;;13.60;80.00;;;;;;4951357;29;20079;-78
2023/12/01 10:17:03;;;;;;;7.95;5.28;;;13.60;79.90;;;;;;4933880;29;19930;-77
2023/12/01 10:19:42;;;;;;;8.90;5.95;;;13.60;79.90;;;;;;4933257;28;20033;-79
2023/12/01 10:22:09;;;;;;;8.63;5.65;;;13.60;79.80;;;;;;4971946;28;20048;-80
2023/12/01 10:24:35;;;;;;;10.18;5.95;;;13.60;79.90;;;;;;4971948;28;20031;-80
2023/12/01 10:27:04;;;;;;;11.77;6.32;;;13.60;79.80;;;;;;4972433;28;20038;-80
2023/12/01 10:29:32;;;;;;;11.25;6.75;;;13.60;79.80;;;;;;4972172;28;20768;-81
2023/12/01 10:31:58;;;;;;;11.65;5.88;;;13.60;79.60;;;;;;4969344;28;20113;-81
2023/12/01 10:34:24;;;;;;;17.67;6.50;;;13.60;79.70;;;;;;4968171;28;20026;-80
2023/12/01 10:36:52;;;;;;;13.07;6.30;;;13.60;79.60;;;;;;4986139;28;20105;-80
2023/12/01 10:39:20;;;;;;;11.70;6.22;;;13.70;79.60;;;;;;4968072;28;20422;-81
2023/12/01 10:41:47;;;;;;;14.10;6.53;;;13.60;79.50;;;;;;4957758;28;20031;-82
2023/12/01 10:44:17;;;;;;;12.27;6.60;;;13.60;79.60;;;;;;4944576;28;20086;-79
2023/12/01 10:46:48;;;;;;;12.35;6.75;;;13.60;79.60;;;;;;4963205;28;20030;-81
2023/12/01 10:49:17;;;;;;;11.90;6.38;;;13.70;79.50;;;;;;4975318;28;20054;-81
2023/12/01 10:51:44;;;;;;;15.48;6.60;;;13.70;79.40;;;;;;4976066;28;20035;-81
2023/12/01 10:54:11;;;;;;;12.25;6.50;;;13.70;79.40;;;;;;4976445;28;20026;-81
2023/12/01 10:56:56;;;;;;;13.27;6.72;;;13.70;79.40;;;;;;4975875;28;20027;-82
2023/12/01 10:59:24;;;;;;;14.70;6.22;;;13.70;79.30;;;;;;4975695;28;20462;-82
2023/12/01 11:01:52;;;;;;;14.25;5.95;;;13.70;79.30;;;;;;4976219;28;20494;-81
2023/12/01 11:04:29;;;;;;;14.00;6.15;;;13.70;79.20;;;;;;4976410;28;20038;-82
2023/12/01 11:07:06;;;;;;;13.25;6.35;;;13.80;79.30;;;;;;4975910;28;20665;-80
2023/12/01 11:10:07;;;;;;;12.00;5.78;;;13.70;79.20;;;;;;4975468;28;20406;-80
2023/12/01 11:12:48;;;;;;;12.10;6.15;;;13.80;79.30;;;;;;4975354;28;20026;-79
2023/12/01 11:15:18;;;;;;;12.65;6.32;;;13.80;79.30;;;;;;4992837;28;20029;-80
2023/12/01 11:17:44;;;;;;;15.07;6.25;;;13.80;79.30;;;;;;4975209;28;20586;-81
2023/12/01 11:20:36;;;;;;;11.80;6.25;;;13.70;79.20;;;;;;4975278;28;20121;-81
2023/12/01 11:23:13;;;;;;;10.15;5.95;;;13.80;79.30;;;;;;4975126;28;20506;-82
2023/12/01 11:25:43;;;;;;;10.02;5.63;;;13.80;79.30;;;;;;4992736;28;20034;-82
2023/12/01 11:28:46;;;;;;;11.10;6.28;;;13.80;79.30;;;;;;4976202;28;20026;-82
2023/12/01 11:31:48;;;;;;;10.30;6.15;;;13.80;79.30;;;;;;4992513;28;20093;-84
2023/12/01 11:34:12;;;;;;;10.00;6.18;;;13.80;79.30;;;;;;4990534;28;20022;-82
2023/12/01 11:36:49;;;;;;;11.98;5.68;;;13.80;79.20;;;;;;4975485;28;20037;-82
2023/12/01 11:39:29;;;;;;;9.68;5.55;;;13.80;79.30;;;;;;4976709;28;20031;-84
2023/12/01 11:42:13;;;;;;;11.98;6.15;;;13.80;79.20;;;;;;4976085;28;20035;-83
2023/12/01 11:44:40;;;;;;;11.95;6.18;;;13.90;79.20;;;;;;4976739;28;20042;-82
2023/12/01 11:47:08;;;;;;;9.63;5.68;;;13.80;79.10;;;;;;4976012;28;20146;-83
2023/12/01 11:49:39;;;;;;;8.77;5.40;;;13.80;79.20;;;;;;4976158;28;20022;-82
2023/12/01 11:52:10;;;;;;;9.80;5.32;;;13.90;79.20;;;;;;4976296;28;20030;-82
2023/12/01 11:54:36;;;;;;;8.88;5.28;;;13.90;79.20;;;;;;4977345;28;20030;-83
2023/12/01 11:57:09;;;;;;;10.15;5.60;;;13.90;79.20;;;;;;4977303;28;20038;-82
2023/12/01 11:59:36;;;;;;;8.65;5.07;;;13.90;79.10;;;;;;4976475;28;20036;-82
2023/12/01 12:02:02;;;;;;;11.35;5.50;;;13.90;79.10;;;;;;4976728;28;20089;-83
2023/12/01 12:04:29;;;;;;;10.40;5.60;;;13.90;79.20;;;;;;4976558;28;20026;-81
2023/12/01 12:06:57;;;;;;;9.93;5.43;;;13.90;79.10;;;;;;4975927;28;20061;-82
2023/12/01 12:09:22;;;;;;;9.63;5.30;;;13.90;79.10;;;;;;4974892;28;20030;-80
2023/12/01 12:11:53;;;;;;;8.73;5.20;;;13.90;79.10;;;;;;4971474;28;20030;-83
2023/12/01 12:14:24;;;;;;;8.93;5.63;;;13.90;79.00;;;;;;4957717;28;20035;-81
2023/12/01 12:16:53;;;;;;;8.30;5.43;;;13.90;79.00;;;;;;4956409;28;20086;-81
2023/12/01 12:19:19;;;;;;;8.13;5.22;;;13.90;79.00;;;;;;4956086;28;20514;-81
2023/12/01 12:21:45;;;;;;;8.02;5.30;;;14.00;79.10;;;;;;4956580;28;20035;-80
2023/12/01 12:24:11;;;;;;;8.98;5.15;;;13.90;79.00;;;;;;4956243;28;20045;-81
2023/12/01 12:26:38;;;;;;;7.82;5.13;;;13.90;79.00;;;;;;4956511;28;20050;-82
2023/12/01 12:29:04;;;;;;;7.82;5.07;;;13.90;78.90;;;;;;4973926;28;20089;-81
2023/12/01 12:31:35;;;;;;;7.50;4.75;;;14.00;79.00;;;;;;4955267;28;20378;-80
2023/12/01 12:34:38;;;;;;;9.40;5.38;;;14.00;78.90;;;;;;4957068;28;20450;-87
2023/12/01 12:37:14;;;;;;;11.40;4.90;;;14.00;79.00;;;;;;4945054;28;20410;-81
2023/12/01 12:40:02;;;;;;;;;;;;;;;;;;;;;
2023/12/01 12:42:30;;;;;;;9.27;5.07;;;13.90;79.00;;;;;;4973769;28;20511;-81
2023/12/01 13:01:42;;;;;;;7.53;4.68;;;14.00;78.80;;;;;;4783557;30;20087;-82
2023/12/01 13:04:11;;;;;;;7.72;5.05;;;14.00;78.80;;;;;;4780753;29;20078;-83
2023/12/01 13:10:42;;;;;;;7.78;5.05;;;14.00;78.80;;;;;;4800066;29;20132;-83
2023/12/01 13:13:08;;;;;;;8.82;4.50;;;14.00;78.80;;;;;;4790436;29;20037;-79
2023/12/01 13:15:33;;;;;;;8.00;4.90;;;14.00;78.70;;;;;;4886705;29;20035;-79
2023/12/01 13:18:30;;;;;;;8.65;4.82;;;14.00;78.70;;;;;;4935944;29;20479;-82
2023/12/01 13:20:57;;;;;;;8.63;5.20;;;14.10;78.80;;;;;;4921424;29;20208;-84
2023/12/01 13:23:26;;;;;;;7.20;4.68;;;14.10;78.90;;;;;;4936178;29;20054;-83
2023/12/01 13:25:52;;;;;;;8.65;4.93;;;14.20;78.90;;;;;;4934943;29;20491;-81
2023/12/01 13:28:17;;;;;;;7.25;4.53;;;14.10;78.80;;;;;;4954430;29;20038;-80
2023/12/01 13:30:43;;;;;;;8.90;4.63;;;14.10;78.90;;;;;;4937663;29;20407;-81
2023/12/01 13:33:08;;;;;;;7.40;4.75;;;14.00;78.90;;;;;;4937813;29;20020;-81
2023/12/01 13:35:35;;;;;;;6.82;4.68;;;14.00;78.90;;;;;;4937730;29;20023;-81
2023/12/01 13:38:07;;;;;;;9.20;4.85;;;14.10;78.90;;;;;;4937563;29;20122;-81
2023/12/01 13:40:32;;;;;;;8.25;4.88;;;14.00;78.90;;;;;;4937339;29;20031;-81
2023/12/01 13:42:58;;;;;;;8.25;4.50;;;14.10;78.90;;;;;;4937344;29;20057;-82
2023/12/01 13:45:25;;;;;;;7.13;4.10;;;14.10;78.90;;;;;;4937533;29;20027;-81
2023/12/01 13:47:51;;;;;;;6.53;4.32;;;14.00;78.90;;;;;;4937553;29;20031;-80
2023/12/01 13:50:18;;;;;;;7.72;4.80;;;14.10;79.00;;;;;;4936959;29;20511;-80
2023/12/01 13:52:45;;;;;;;6.55;4.35;;;14.10;79.00;;;;;;4937403;29;20487;-81
2023/12/01 13:55:10;;;;;;;6.60;4.47;;;14.10;79.00;;;;;;4937399;29;20620;-81
2023/12/01 13:57:39;;;;;;;7.18;4.53;;;14.10;79.00;;;;;;4937328;29;20024;-81
2023/12/01 14:00:07;;;;;;;7.40;4.70;;;14.10;79.00;;;;;;4937163;29;20027;-82
2023/12/01 14:02:32;;;;;;;8.57;4.78;;;14.00;78.90;;;;;;4921876;29;20035;-82
2023/12/01 14:04:58;;;;;;;7.22;4.25;;;14.10;79.00;;;;;;4937476;29;20381;-82
2023/12/01 14:07:23;;;;;;;7.03;4.22;;;14.10;78.90;;;;;;4936830;29;20034;-80
2023/12/01 14:09:49;;;;;;;7.45;4.53;;;14.10;79.00;;;;;;4936900;29;20028;-81
2023/12/01 14:12:14;;;;;;;6.93;4.30;;;14.10;78.90;;;;;;4937211;29;20016;-81
2023/12/01 14:14:40;;;;;;;7.53;4.30;;;14.10;78.90;;;;;;4937259;29;20027;-81
2023/12/01 14:17:05;;;;;;;7.38;4.55;;;14.00;78.90;;;;;;4937072;29;20027;-81
2023/12/01 14:19:31;;;;;;;7.07;4.07;;;14.10;78.90;;;;;;4936807;29;20023;-81
2023/12/01 14:21:56;;;;;;;6.50;4.15;;;14.10;78.90;;;;;;4938699;29;20109;-81
2023/12/01 14:24:22;;;;;;;6.63;4.13;;;14.10;78.90;;;;;;4941054;29;20550;-81
2023/12/01 14:26:47;;;;;;;6.68;4.35;;;14.10;78.90;;;;;;4941102;29;20024;-83
2023/12/01 14:29:13;;;;;;;6.47;4.05;;;14.10;78.90;;;;;;4940339;28;20160;-81
2023/12/01 14:31:39;;;;;;;7.20;4.18;;;14.10;78.90;;;;;;4958213;28;20089;-83
2023/12/01 14:34:06;;;;;;;7.55;4.28;;;14.10;78.80;;;;;;4960130;28;20443;-81
2023/12/01 14:36:32;;;;;;;6.85;4.40;;;14.10;78.90;;;;;;4960016;28;20085;-81
2023/12/01 14:38:57;;;;;;;7.40;4.28;;;14.10;78.90;;;;;;4959486;28;20022;-81
2023/12/01 14:41:23;;;;;;;7.40;4.35;;;14.10;78.90;;;;;;4959893;28;20110;-80
2023/12/01 14:43:48;;;;;;;6.55;4.50;;;14.10;78.90;;;;;;4977136;28;20027;-81
2023/12/01 14:46:14;;;;;;;6.82;4.25;;;14.10;78.90;;;;;;4959741;28;20027;-82
2023/12/01 14:48:40;;;;;;;6.07;3.72;;;14.10;78.90;;;;;;4959393;28;20039;-80
2023/12/01 14:51:06;;;;;;;6.88;4.00;;;14.10;78.90;;;;;;4959581;28;20023;-81
2023/12/01 14:53:32;;;;;;;7.63;4.10;;;14.10;78.90;;;;;;4976918;28;20098;-81
2023/12/01 14:55:57;;;;;;;6.70;4.28;;;14.10;78.80;;;;;;4959467;28;20117;-81
2023/12/01 14:58:23;;;;;;;5.72;3.75;;;14.10;78.80;;;;;;4959490;28;20019;-81
2023/12/01 15:00:49;;;;;;;6.50;3.85;;;14.00;78.80;;;;;;4959647;28;20034;-81
2023/12/01 15:03:15;;;;;;;7.57;4.30;;;14.10;78.90;;;;;;4959240;28;20038;-80
2023/12/01 15:05:40;;;;;;;6.72;4.03;;;14.10;78.90;;;;;;4959432;28;20031;-81
2023/12/01 15:08:06;;;;;;;5.75;3.85;;;14.10;78.90;;;;;;4959349;28;20026;-81
2023/12/01 15:10:31;;;;;;;7.90;3.85;;;14.10;78.90;;;;;;4958997;28;20019;-81